sensor_id;sensor_type;location;lat;lon;timestamp;P1;durP1;ratioP1;P2;durP2;ratioP2
55489;SDS011;44029;52.956;4.772;2022-11-11T00:00:32;21.17;;;3.83;;
55489;SDS011;44029;52.956;4.772;2022-11-11T00:02:59;21.02;;;5.13;;
55489;SDS011;44029;52.956;4.772;2022-11-11T00:05:25;25.85;;;4.20;;
55489;SDS011;44029;52.956;4.772;2022-11-11T00:07:51;22.95;;;3.90;;
55489;SDS011;44029;52.956;4.772;2022-11-11T00:10:17;18.42;;;4.63;;
55489;SDS011;44029;52.956;4.772;2022-11-11T00:12:43;18.80;;;4.85;;
55489;SDS011;44029;52.956;4.772;2022-11-11T00:15:08;21.92;;;3.65;;
55489;SDS011;44029;52.956;4.772;2022-11-11T00:17:34;18.38;;;4.75;;
55489;SDS011;44029;52.956;4.772;2022-11-11T00:20:18;18.05;;;3.28;;
55489;SDS011;44029;52.956;4.772;2022-11-11T00:23:02;18.95;;;3.63;;
55489;SDS011;44029;52.956;4.772;2022-11-11T00:25:51;27.75;;;7.47;;
55489;SDS011;44029;52.956;4.772;2022-11-11T00:28:17;13.82;;;3.35;;
55489;SDS011;44029;52.956;4.772;2022-11-11T00:30:42;32.05;;;4.45;;
55489;SDS011;44029;52.956;4.772;2022-11-11T00:33:08;21.60;;;4.22;;
55489;SDS011;44029;52.956;4.772;2022-11-11T00:35:33;27.33;;;4.60;;
55489;SDS011;44029;52.956;4.772;2022-11-11T00:38:17;18.77;;;3.33;;
55489;SDS011;44029;52.956;4.772;2022-11-11T00:41:01;22.92;;;3.58;;
55489;SDS011;44029;52.956;4.772;2022-11-11T00:43:27;26.17;;;4.07;;
55489;SDS011;44029;52.956;4.772;2022-11-11T00:45:52;23.25;;;5.32;;
55489;SDS011;44029;52.956;4.772;2022-11-11T00:48:18;20.85;;;3.90;;
55489;SDS011;44029;52.956;4.772;2022-11-11T00:51:02;23.77;;;4.10;;
55489;SDS011;44029;52.956;4.772;2022-11-11T00:53:28;21.45;;;4.43;;
55489;SDS011;44029;52.956;4.772;2022-11-11T00:55:57;31.05;;;4.97;;
55489;SDS011;44029;52.956;4.772;2022-11-11T00:58:23;27.13;;;3.95;;
55489;SDS011;44029;52.956;4.772;2022-11-11T01:00:49;24.42;;;3.88;;
55489;SDS011;44029;52.956;4.772;2022-11-11T01:03:17;19.42;;;3.90;;
55489;SDS011;44029;52.956;4.772;2022-11-11T01:05:43;32.38;;;4.65;;
55489;SDS011;44029;52.956;4.772;2022-11-11T01:08:08;19.90;;;3.72;;
55489;SDS011;44029;52.956;4.772;2022-11-11T01:10:35;29.10;;;3.92;;
55489;SDS011;44029;52.956;4.772;2022-11-11T01:13:27;34.70;;;4.97;;
55489;SDS011;44029;52.956;4.772;2022-11-11T01:15:59;27.83;;;4.85;;
55489;SDS011;44029;52.956;4.772;2022-11-11T01:18:29;11.98;;;4.15;;
55489;SDS011;44029;52.956;4.772;2022-11-11T01:21:08;30.50;;;4.40;;
55489;SDS011;44029;52.956;4.772;2022-11-11T01:23:39;22.65;;;4.30;;
55489;SDS011;44029;52.956;4.772;2022-11-11T01:28:34;18.90;;;4.30;;
55489;SDS011;44029;52.956;4.772;2022-11-11T01:31:00;14.68;;;3.15;;
55489;SDS011;44029;52.956;4.772;2022-11-11T01:33:30;16.33;;;3.65;;
55489;SDS011;44029;52.956;4.772;2022-11-11T01:36:01;31.77;;;3.88;;
55489;SDS011;44029;52.956;4.772;2022-11-11T01:38:30;28.35;;;4.40;;
55489;SDS011;44029;52.956;4.772;2022-11-11T01:40:56;18.73;;;4.13;;
55489;SDS011;44029;52.956;4.772;2022-11-11T01:43:22;28.30;;;3.80;;
55489;SDS011;44029;52.956;4.772;2022-11-11T01:45:55;16.33;;;3.72;;
55489;SDS011;44029;52.956;4.772;2022-11-11T01:54:33;27.35;;;4.68;;
55489;SDS011;44029;52.956;4.772;2022-11-11T01:57:16;23.58;;;4.00;;
55489;SDS011;44029;52.956;4.772;2022-11-11T01:59:47;21.63;;;4.32;;
55489;SDS011;44029;52.956;4.772;2022-11-11T02:02:21;23.65;;;4.32;;
55489;SDS011;44029;52.956;4.772;2022-11-11T02:04:50;30.25;;;4.30;;
55489;SDS011;44029;52.956;4.772;2022-11-11T02:07:35;15.48;;;4.05;;
55489;SDS011;44029;52.956;4.772;2022-11-11T02:10:05;21.63;;;4.30;;
55489;SDS011;44029;52.956;4.772;2022-11-11T02:12:33;17.92;;;3.70;;
55489;SDS011;44029;52.956;4.772;2022-11-11T02:15:17;35.13;;;5.38;;
55489;SDS011;44029;52.956;4.772;2022-11-11T02:17:42;32.70;;;5.28;;
55489;SDS011;44029;52.956;4.772;2022-11-11T02:20:08;35.88;;;4.50;;
55489;SDS011;44029;52.956;4.772;2022-11-11T02:22:48;19.88;;;4.22;;
55489;SDS011;44029;52.956;4.772;2022-11-11T02:25:18;35.30;;;4.72;;
55489;SDS011;44029;52.956;4.772;2022-11-11T02:27:49;32.15;;;4.68;;
55489;SDS011;44029;52.956;4.772;2022-11-11T02:30:16;28.75;;;4.50;;
55489;SDS011;44029;52.956;4.772;2022-11-11T02:32:43;28.15;;;5.18;;
55489;SDS011;44029;52.956;4.772;2022-11-11T02:35:16;19.70;;;3.97;;
55489;SDS011;44029;52.956;4.772;2022-11-11T02:38:03;23.25;;;3.60;;
55489;SDS011;44029;52.956;4.772;2022-11-11T02:40:42;19.10;;;3.88;;
55489;SDS011;44029;52.956;4.772;2022-11-11T02:43:27;25.67;;;3.63;;
55489;SDS011;44029;52.956;4.772;2022-11-11T02:45:53;32.15;;;4.72;;
55489;SDS011;44029;52.956;4.772;2022-11-11T02:48:19;30.40;;;4.85;;
55489;SDS011;44029;52.956;4.772;2022-11-11T02:50:45;20.02;;;3.83;;
55489;SDS011;44029;52.956;4.772;2022-11-11T02:53:10;30.05;;;4.82;;
55489;SDS011;44029;52.956;4.772;2022-11-11T02:55:36;45.83;;;6.20;;
55489;SDS011;44029;52.956;4.772;2022-11-11T02:58:01;24.13;;;4.82;;
55489;SDS011;44029;52.956;4.772;2022-11-11T03:00:27;23.55;;;5.32;;
55489;SDS011;44029;52.956;4.772;2022-11-11T03:02:52;22.60;;;5.35;;
55489;SDS011;44029;52.956;4.772;2022-11-11T03:05:18;32.55;;;5.43;;
55489;SDS011;44029;52.956;4.772;2022-11-11T03:07:44;24.30;;;6.30;;
55489;SDS011;44029;52.956;4.772;2022-11-11T03:10:10;36.88;;;6.07;;
55489;SDS011;44029;52.956;4.772;2022-11-11T03:12:36;26.75;;;6.90;;
55489;SDS011;44029;52.956;4.772;2022-11-11T03:15:02;21.75;;;7.03;;
55489;SDS011;44029;52.956;4.772;2022-11-11T03:17:28;27.63;;;6.22;;
55489;SDS011;44029;52.956;4.772;2022-11-11T03:20:10;24.10;;;6.22;;
55489;SDS011;44029;52.956;4.772;2022-11-11T03:23:09;27.38;;;7.03;;
55489;SDS011;44029;52.956;4.772;2022-11-11T03:25:36;35.95;;;6.03;;
55489;SDS011;44029;52.956;4.772;2022-11-11T03:28:08;35.28;;;6.70;;
55489;SDS011;44029;52.956;4.772;2022-11-11T03:30:36;14.20;;;4.50;;
55489;SDS011;44029;52.956;4.772;2022-11-11T03:33:02;19.67;;;4.80;;
55489;SDS011;44029;52.956;4.772;2022-11-11T03:35:28;23.92;;;6.43;;
55489;SDS011;44029;52.956;4.772;2022-11-11T03:37:54;19.35;;;6.25;;
55489;SDS011;44029;52.956;4.772;2022-11-11T03:40:38;23.20;;;5.60;;
55489;SDS011;44029;52.956;4.772;2022-11-11T03:43:03;30.58;;;6.28;;
55489;SDS011;44029;52.956;4.772;2022-11-11T03:45:29;22.63;;;5.53;;
55489;SDS011;44029;52.956;4.772;2022-11-11T03:47:54;31.05;;;6.50;;
55489;SDS011;44029;52.956;4.772;2022-11-11T03:50:20;28.55;;;4.85;;
55489;SDS011;44029;52.956;4.772;2022-11-11T03:52:46;30.08;;;4.88;;
55489;SDS011;44029;52.956;4.772;2022-11-11T03:55:11;34.97;;;6.53;;
55489;SDS011;44029;52.956;4.772;2022-11-11T03:57:43;18.80;;;5.25;;
55489;SDS011;44029;52.956;4.772;2022-11-11T04:00:14;27.40;;;5.13;;
55489;SDS011;44029;52.956;4.772;2022-11-11T04:02:44;26.05;;;4.45;;
55489;SDS011;44029;52.956;4.772;2022-11-11T04:05:29;33.20;;;5.50;;
55489;SDS011;44029;52.956;4.772;2022-11-11T04:08:14;27.10;;;5.55;;
55489;SDS011;44029;52.956;4.772;2022-11-11T04:11:10;20.70;;;4.80;;
55489;SDS011;44029;52.956;4.772;2022-11-11T04:13:41;25.20;;;4.55;;
55489;SDS011;44029;52.956;4.772;2022-11-11T04:16:29;33.05;;;5.22;;
55489;SDS011;44029;52.956;4.772;2022-11-11T04:18:54;23.25;;;6.70;;
55489;SDS011;44029;52.956;4.772;2022-11-11T04:21:38;36.97;;;6.53;;
55489;SDS011;44029;52.956;4.772;2022-11-11T04:24:10;33.35;;;7.00;;
55489;SDS011;44029;52.956;4.772;2022-11-11T04:26:57;22.85;;;5.53;;
55489;SDS011;44029;52.956;4.772;2022-11-11T04:29:24;23.60;;;6.38;;
55489;SDS011;44029;52.956;4.772;2022-11-11T04:31:53;26.58;;;5.97;;
55489;SDS011;44029;52.956;4.772;2022-11-11T04:34:41;21.73;;;5.40;;
55489;SDS011;44029;52.956;4.772;2022-11-11T04:37:08;30.42;;;6.18;;
55489;SDS011;44029;52.956;4.772;2022-11-11T04:39:34;23.08;;;6.25;;
55489;SDS011;44029;52.956;4.772;2022-11-11T04:42:18;31.20;;;6.57;;
55489;SDS011;44029;52.956;4.772;2022-11-11T04:44:43;22.10;;;6.22;;
55489;SDS011;44029;52.956;4.772;2022-11-11T04:47:27;28.48;;;6.60;;
55489;SDS011;44029;52.956;4.772;2022-11-11T04:49:53;23.52;;;6.80;;
55489;SDS011;44029;52.956;4.772;2022-11-11T04:52:18;31.00;;;7.30;;
55489;SDS011;44029;52.956;4.772;2022-11-11T04:54:55;31.20;;;7.40;;
55489;SDS011;44029;52.956;4.772;2022-11-11T04:57:41;34.17;;;8.50;;
55489;SDS011;44029;52.956;4.772;2022-11-11T05:00:08;23.92;;;8.23;;
55489;SDS011;44029;52.956;4.772;2022-11-11T05:02:36;32.72;;;8.70;;
55489;SDS011;44029;52.956;4.772;2022-11-11T05:05:21;19.77;;;7.25;;
55489;SDS011;44029;52.956;4.772;2022-11-11T05:07:47;25.88;;;8.43;;
55489;SDS011;44029;52.956;4.772;2022-11-11T05:10:30;34.75;;;8.45;;
55489;SDS011;44029;52.956;4.772;2022-11-11T05:12:56;32.92;;;9.20;;
55489;SDS011;44029;52.956;4.772;2022-11-11T05:15:41;27.70;;;8.43;;
55489;SDS011;44029;52.956;4.772;2022-11-11T05:18:26;21.55;;;8.27;;
55489;SDS011;44029;52.956;4.772;2022-11-11T05:21:14;25.52;;;8.30;;
55489;SDS011;44029;52.956;4.772;2022-11-11T05:23:45;37.05;;;8.45;;
55489;SDS011;44029;52.956;4.772;2022-11-11T05:26:29;29.10;;;8.77;;
55489;SDS011;44029;52.956;4.772;2022-11-11T05:28:54;17.15;;;7.20;;
55489;SDS011;44029;52.956;4.772;2022-11-11T05:31:20;26.65;;;7.93;;
55489;SDS011;44029;52.956;4.772;2022-11-11T05:33:45;26.33;;;6.68;;
55489;SDS011;44029;52.956;4.772;2022-11-11T05:36:10;32.45;;;8.95;;
55489;SDS011;44029;52.956;4.772;2022-11-11T05:38:36;27.35;;;8.85;;
55489;SDS011;44029;52.956;4.772;2022-11-11T05:41:01;31.13;;;9.45;;
55489;SDS011;44029;52.956;4.772;2022-11-11T05:43:26;30.40;;;11.02;;
55489;SDS011;44029;52.956;4.772;2022-11-11T05:45:52;26.65;;;9.25;;
55489;SDS011;44029;52.956;4.772;2022-11-11T05:48:17;37.17;;;10.02;;
55489;SDS011;44029;52.956;4.772;2022-11-11T05:50:42;25.40;;;8.52;;
55489;SDS011;44029;52.956;4.772;2022-11-11T05:53:08;42.83;;;10.23;;
55489;SDS011;44029;52.956;4.772;2022-11-11T05:55:33;27.58;;;9.65;;
55489;SDS011;44029;52.956;4.772;2022-11-11T05:57:59;29.23;;;11.02;;
55489;SDS011;44029;52.956;4.772;2022-11-11T06:00:24;31.42;;;10.68;;
55489;SDS011;44029;52.956;4.772;2022-11-11T06:02:49;34.30;;;11.38;;
55489;SDS011;44029;52.956;4.772;2022-11-11T06:05:15;32.55;;;11.27;;
55489;SDS011;44029;52.956;4.772;2022-11-11T06:07:40;23.70;;;9.25;;
55489;SDS011;44029;52.956;4.772;2022-11-11T06:10:06;30.10;;;8.63;;
55489;SDS011;44029;52.956;4.772;2022-11-11T06:12:50;27.85;;;9.80;;
55489;SDS011;44029;52.956;4.772;2022-11-11T06:15:37;28.52;;;8.73;;
55489;SDS011;44029;52.956;4.772;2022-11-11T06:18:04;30.67;;;9.73;;
55489;SDS011;44029;52.956;4.772;2022-11-11T06:20:30;35.67;;;10.43;;
55489;SDS011;44029;52.956;4.772;2022-11-11T06:22:55;31.55;;;10.98;;
55489;SDS011;44029;52.956;4.772;2022-11-11T06:25:22;33.17;;;7.95;;
55489;SDS011;44029;52.956;4.772;2022-11-11T06:28:10;39.20;;;11.60;;
55489;SDS011;44029;52.956;4.772;2022-11-11T06:30:36;37.45;;;13.27;;
55489;SDS011;44029;52.956;4.772;2022-11-11T06:33:02;36.85;;;11.93;;
55489;SDS011;44029;52.956;4.772;2022-11-11T06:35:28;39.20;;;13.80;;
55489;SDS011;44029;52.956;4.772;2022-11-11T06:37:53;36.17;;;12.75;;
55489;SDS011;44029;52.956;4.772;2022-11-11T06:40:18;34.05;;;12.43;;
55489;SDS011;44029;52.956;4.772;2022-11-11T06:42:44;40.13;;;13.07;;
55489;SDS011;44029;52.956;4.772;2022-11-11T06:45:09;28.15;;;12.43;;
55489;SDS011;44029;52.956;4.772;2022-11-11T06:47:35;11.70;;;5.72;;
55489;SDS011;44029;52.956;4.772;2022-11-11T06:50:00;30.92;;;11.90;;
55489;SDS011;44029;52.956;4.772;2022-11-11T06:52:26;25.63;;;11.50;;
55489;SDS011;44029;52.956;4.772;2022-11-11T06:54:51;29.73;;;11.40;;
55489;SDS011;44029;52.956;4.772;2022-11-11T06:57:28;32.40;;;12.43;;
55489;SDS011;44029;52.956;4.772;2022-11-11T06:59:53;28.70;;;11.50;;
55489;SDS011;44029;52.956;4.772;2022-11-11T07:02:19;35.15;;;13.65;;
55489;SDS011;44029;52.956;4.772;2022-11-11T07:04:44;33.65;;;12.25;;
55489;SDS011;44029;52.956;4.772;2022-11-11T07:07:15;28.65;;;10.20;;
55489;SDS011;44029;52.956;4.772;2022-11-11T07:09:41;38.38;;;14.32;;
55489;SDS011;44029;52.956;4.772;2022-11-11T07:12:07;38.33;;;13.57;;
55489;SDS011;44029;52.956;4.772;2022-11-11T07:14:33;37.30;;;12.75;;
55489;SDS011;44029;52.956;4.772;2022-11-11T07:16:59;38.00;;;12.90;;
55489;SDS011;44029;52.956;4.772;2022-11-11T07:19:24;30.60;;;11.35;;
55489;SDS011;44029;52.956;4.772;2022-11-11T07:21:50;30.33;;;13.13;;
55489;SDS011;44029;52.956;4.772;2022-11-11T07:24:18;33.33;;;13.32;;
55489;SDS011;44029;52.956;4.772;2022-11-11T07:26:44;33.63;;;12.63;;
55489;SDS011;44029;52.956;4.772;2022-11-11T07:29:26;29.17;;;12.68;;
55489;SDS011;44029;52.956;4.772;2022-11-11T07:31:55;39.03;;;12.13;;
55489;SDS011;44029;52.956;4.772;2022-11-11T07:34:20;32.22;;;11.77;;
55489;SDS011;44029;52.956;4.772;2022-11-11T07:36:45;28.73;;;10.63;;
55489;SDS011;44029;52.956;4.772;2022-11-11T07:39:11;27.40;;;11.02;;
55489;SDS011;44029;52.956;4.772;2022-11-11T07:41:36;24.50;;;11.85;;
55489;SDS011;44029;52.956;4.772;2022-11-11T07:44:02;30.95;;;10.52;;
55489;SDS011;44029;52.956;4.772;2022-11-11T07:46:30;30.17;;;10.23;;
55489;SDS011;44029;52.956;4.772;2022-11-11T07:49:05;27.10;;;10.70;;
55489;SDS011;44029;52.956;4.772;2022-11-11T07:51:30;27.00;;;10.70;;
55489;SDS011;44029;52.956;4.772;2022-11-11T07:53:56;33.80;;;11.68;;
55489;SDS011;44029;52.956;4.772;2022-11-11T07:56:21;24.85;;;10.35;;
55489;SDS011;44029;52.956;4.772;2022-11-11T07:58:49;21.27;;;10.32;;
55489;SDS011;44029;52.956;4.772;2022-11-11T08:01:15;33.72;;;10.57;;
55489;SDS011;44029;52.956;4.772;2022-11-11T08:03:43;34.42;;;11.43;;
55489;SDS011;44029;52.956;4.772;2022-11-11T08:06:15;24.33;;;10.30;;
55489;SDS011;44029;52.956;4.772;2022-11-11T08:08:42;24.33;;;10.48;;
55489;SDS011;44029;52.956;4.772;2022-11-11T08:11:10;27.58;;;10.32;;
55489;SDS011;44029;52.956;4.772;2022-11-11T08:13:36;33.25;;;10.05;;
55489;SDS011;44029;52.956;4.772;2022-11-11T08:16:07;24.95;;;9.85;;
55489;SDS011;44029;52.956;4.772;2022-11-11T08:18:34;32.90;;;9.98;;
55489;SDS011;44029;52.956;4.772;2022-11-11T08:21:00;24.65;;;10.05;;
55489;SDS011;44029;52.956;4.772;2022-11-11T08:23:26;23.15;;;11.20;;
55489;SDS011;44029;52.956;4.772;2022-11-11T08:25:59;25.83;;;10.75;;
55489;SDS011;44029;52.956;4.772;2022-11-11T08:28:28;22.27;;;9.77;;
55489;SDS011;44029;52.956;4.772;2022-11-11T08:31:00;26.35;;;10.77;;
55489;SDS011;44029;52.956;4.772;2022-11-11T08:33:27;28.23;;;10.60;;
55489;SDS011;44029;52.956;4.772;2022-11-11T08:35:53;32.67;;;9.50;;
55489;SDS011;44029;52.956;4.772;2022-11-11T08:38:23;29.27;;;9.85;;
55489;SDS011;44029;52.956;4.772;2022-11-11T08:40:49;29.15;;;9.75;;
55489;SDS011;44029;52.956;4.772;2022-11-11T08:43:15;32.17;;;9.05;;
55489;SDS011;44029;52.956;4.772;2022-11-11T08:45:49;25.48;;;8.80;;
55489;SDS011;44029;52.956;4.772;2022-11-11T08:48:17;21.80;;;8.88;;
55489;SDS011;44029;52.956;4.772;2022-11-11T08:50:42;27.15;;;9.10;;
55489;SDS011;44029;52.956;4.772;2022-11-11T08:53:29;22.27;;;9.90;;
55489;SDS011;44029;52.956;4.772;2022-11-11T08:55:54;16.75;;;8.23;;
55489;SDS011;44029;52.956;4.772;2022-11-11T08:58:20;25.75;;;8.93;;
55489;SDS011;44029;52.956;4.772;2022-11-11T09:00:45;22.42;;;8.20;;
55489;SDS011;44029;52.956;4.772;2022-11-11T09:03:11;24.90;;;9.27;;
55489;SDS011;44029;52.956;4.772;2022-11-11T09:05:36;26.42;;;8.88;;
55489;SDS011;44029;52.956;4.772;2022-11-11T09:08:03;23.83;;;9.63;;
55489;SDS011;44029;52.956;4.772;2022-11-11T09:10:31;19.77;;;7.90;;
55489;SDS011;44029;52.956;4.772;2022-11-11T09:12:57;25.73;;;7.43;;
55489;SDS011;44029;52.956;4.772;2022-11-11T09:15:23;21.90;;;8.07;;
55489;SDS011;44029;52.956;4.772;2022-11-11T09:17:48;20.70;;;8.70;;
55489;SDS011;44029;52.956;4.772;2022-11-11T09:20:14;25.98;;;9.10;;
55489;SDS011;44029;52.956;4.772;2022-11-11T09:22:42;18.30;;;9.05;;
55489;SDS011;44029;52.956;4.772;2022-11-11T09:25:08;28.67;;;8.15;;
55489;SDS011;44029;52.956;4.772;2022-11-11T09:27:34;16.20;;;6.72;;
55489;SDS011;44029;52.956;4.772;2022-11-11T09:30:00;24.75;;;9.02;;
55489;SDS011;44029;52.956;4.772;2022-11-11T09:32:25;22.65;;;8.82;;
55489;SDS011;44029;52.956;4.772;2022-11-11T09:34:50;24.35;;;8.85;;
55489;SDS011;44029;52.956;4.772;2022-11-11T09:37:16;22.80;;;8.75;;
55489;SDS011;44029;52.956;4.772;2022-11-11T09:39:41;28.65;;;10.02;;
55489;SDS011;44029;52.956;4.772;2022-11-11T09:42:10;24.70;;;9.80;;
55489;SDS011;44029;52.956;4.772;2022-11-11T09:50:30;26.73;;;10.40;;
55489;SDS011;44029;52.956;4.772;2022-11-11T09:58:23;21.02;;;10.48;;
55489;SDS011;44029;52.956;4.772;2022-11-11T10:01:13;21.45;;;10.00;;
55489;SDS011;44029;52.956;4.772;2022-11-11T10:03:45;34.65;;;11.18;;
55489;SDS011;44029;52.956;4.772;2022-11-11T10:06:22;26.45;;;10.48;;
55489;SDS011;44029;52.956;4.772;2022-11-11T10:14:31;29.10;;;10.77;;
55489;SDS011;44029;52.956;4.772;2022-11-11T10:20:06;27.45;;;11.57;;
55489;SDS011;44029;52.956;4.772;2022-11-11T10:22:35;30.90;;;11.38;;
55489;SDS011;44029;52.956;4.772;2022-11-11T10:27:36;26.52;;;10.65;;
55489;SDS011;44029;52.956;4.772;2022-11-11T10:30:18;26.58;;;10.55;;
55489;SDS011;44029;52.956;4.772;2022-11-11T10:32:53;22.95;;;10.13;;
55489;SDS011;44029;52.956;4.772;2022-11-11T10:35:24;28.38;;;10.25;;
55489;SDS011;44029;52.956;4.772;2022-11-11T10:38:13;26.58;;;10.40;;
55489;SDS011;44029;52.956;4.772;2022-11-11T10:40:47;24.73;;;11.25;;
55489;SDS011;44029;52.956;4.772;2022-11-11T10:43:21;30.98;;;11.02;;
55489;SDS011;44029;52.956;4.772;2022-11-11T10:45:57;32.30;;;10.65;;
55489;SDS011;44029;52.956;4.772;2022-11-11T10:48:38;25.38;;;10.45;;
55489;SDS011;44029;52.956;4.772;2022-11-11T10:51:10;31.27;;;11.73;;
55489;SDS011;44029;52.956;4.772;2022-11-11T10:53:42;20.88;;;10.50;;
55489;SDS011;44029;52.956;4.772;2022-11-11T10:56:28;26.63;;;11.25;;
55489;SDS011;44029;52.956;4.772;2022-11-11T11:01:39;35.58;;;12.32;;
55489;SDS011;44029;52.956;4.772;2022-11-11T11:04:14;33.78;;;12.85;;
55489;SDS011;44029;52.956;4.772;2022-11-11T11:06:45;29.50;;;12.23;;
55489;SDS011;44029;52.956;4.772;2022-11-11T11:09:18;29.17;;;13.15;;
55489;SDS011;44029;52.956;4.772;2022-11-11T11:11:50;29.95;;;12.75;;
55489;SDS011;44029;52.956;4.772;2022-11-11T11:14:22;44.75;;;13.02;;
55489;SDS011;44029;52.956;4.772;2022-11-11T11:16:53;29.80;;;13.18;;
55489;SDS011;44029;52.956;4.772;2022-11-11T11:21:59;32.80;;;12.95;;
55489;SDS011;44029;52.956;4.772;2022-11-11T11:24:27;32.47;;;11.32;;
55489;SDS011;44029;52.956;4.772;2022-11-11T11:26:54;26.48;;;11.52;;
55489;SDS011;44029;52.956;4.772;2022-11-11T11:29:28;23.90;;;10.07;;
55489;SDS011;44029;52.956;4.772;2022-11-11T11:34:55;23.50;;;9.77;;
55489;SDS011;44029;52.956;4.772;2022-11-11T11:37:22;21.25;;;9.25;;
55489;SDS011;44029;52.956;4.772;2022-11-11T11:39:57;23.67;;;10.00;;
55489;SDS011;44029;52.956;4.772;2022-11-11T11:42:34;25.77;;;10.83;;
55489;SDS011;44029;52.956;4.772;2022-11-11T11:50:51;33.95;;;11.38;;
55489;SDS011;44029;52.956;4.772;2022-11-11T11:53:24;35.20;;;12.38;;
55489;SDS011;44029;52.956;4.772;2022-11-11T11:55:53;28.95;;;12.18;;
55489;SDS011;44029;52.956;4.772;2022-11-11T12:01:02;25.17;;;12.35;;
55489;SDS011;44029;52.956;4.772;2022-11-11T12:03:51;35.05;;;10.25;;
55489;SDS011;44029;52.956;4.772;2022-11-11T12:06:40;26.95;;;11.88;;
55489;SDS011;44029;52.956;4.772;2022-11-11T12:14:49;29.98;;;11.35;;
55489;SDS011;44029;52.956;4.772;2022-11-11T12:19:40;109.18;;;42.53;;
55489;SDS011;44029;52.956;4.772;2022-11-11T12:25:36;33.08;;;11.18;;
55489;SDS011;44029;52.956;4.772;2022-11-11T12:27:55;23.20;;;10.48;;
55489;SDS011;44029;52.956;4.772;2022-11-11T12:30:39;26.75;;;10.15;;
55489;SDS011;44029;52.956;4.772;2022-11-11T12:33:29;27.20;;;12.05;;
55489;SDS011;44029;52.956;4.772;2022-11-11T12:47:36;33.63;;;13.45;;
55489;SDS011;44029;52.956;4.772;2022-11-11T13:07:06;28.67;;;12.90;;
55489;SDS011;44029;52.956;4.772;2022-11-11T13:15:11;34.70;;;13.52;;
55489;SDS011;44029;52.956;4.772;2022-11-11T13:17:39;32.20;;;13.20;;
55489;SDS011;44029;52.956;4.772;2022-11-11T13:22:39;32.55;;;12.70;;
55489;SDS011;44029;52.956;4.772;2022-11-11T13:25:05;27.75;;;10.98;;
55489;SDS011;44029;52.956;4.772;2022-11-11T13:27:47;30.38;;;11.02;;
55489;SDS011;44029;52.956;4.772;2022-11-11T13:33:20;21.98;;;10.60;;
55489;SDS011;44029;52.956;4.772;2022-11-11T13:35:53;26.13;;;10.73;;
55489;SDS011;44029;52.956;4.772;2022-11-11T13:40:55;30.02;;;9.52;;
55489;SDS011;44029;52.956;4.772;2022-11-11T13:45:53;24.05;;;10.43;;
55489;SDS011;44029;52.956;4.772;2022-11-11T13:48:44;25.13;;;8.52;;
55489;SDS011;44029;52.956;4.772;2022-11-11T13:51:26;21.30;;;7.80;;
55489;SDS011;44029;52.956;4.772;2022-11-11T13:53:58;16.50;;;7.18;;
55489;SDS011;44029;52.956;4.772;2022-11-11T13:56:39;24.52;;;8.80;;
55489;SDS011;44029;52.956;4.772;2022-11-11T13:59:20;30.98;;;8.40;;
55489;SDS011;44029;52.956;4.772;2022-11-11T14:01:48;34.92;;;12.45;;
55489;SDS011;44029;52.956;4.772;2022-11-11T14:12:41;27.50;;;9.45;;
55489;SDS011;44029;52.956;4.772;2022-11-11T14:15:33;24.40;;;9.65;;
55489;SDS011;44029;52.956;4.772;2022-11-11T14:20:44;23.83;;;10.15;;
55489;SDS011;44029;52.956;4.772;2022-11-11T14:25:41;25.83;;;9.85;;
55489;SDS011;44029;52.956;4.772;2022-11-11T14:28:31;27.17;;;9.73;;
55489;SDS011;44029;52.956;4.772;2022-11-11T14:41:49;22.35;;;9.05;;
55489;SDS011;44029;52.956;4.772;2022-11-11T15:06:01;30.10;;;10.63;;
55489;SDS011;44029;52.956;4.772;2022-11-11T15:14:02;21.92;;;9.90;;
55489;SDS011;44029;52.956;4.772;2022-11-11T15:19:54;32.83;;;15.15;;
55489;SDS011;44029;52.956;4.772;2022-11-11T15:25:28;21.38;;;11.02;;
55489;SDS011;44029;52.956;4.772;2022-11-11T15:30:41;21.75;;;8.95;;
55489;SDS011;44029;52.956;4.772;2022-11-11T15:35:56;20.25;;;10.15;;
55489;SDS011;44029;52.956;4.772;2022-11-11T15:38:27;24.80;;;8.23;;
55489;SDS011;44029;52.956;4.772;2022-11-11T15:40:54;18.75;;;7.32;;
55489;SDS011;44029;52.956;4.772;2022-11-11T15:43:23;28.83;;;12.95;;
55489;SDS011;44029;52.956;4.772;2022-11-11T15:45:52;29.48;;;11.63;;
55489;SDS011;44029;52.956;4.772;2022-11-11T15:48:22;25.30;;;11.45;;
55489;SDS011;44029;52.956;4.772;2022-11-11T15:50:51;31.53;;;11.23;;
55489;SDS011;44029;52.956;4.772;2022-11-11T15:53:21;56.22;;;23.17;;
55489;SDS011;44029;52.956;4.772;2022-11-11T15:55:52;42.97;;;18.85;;
55489;SDS011;44029;52.956;4.772;2022-11-11T16:00:51;30.38;;;11.32;;
55489;SDS011;44029;52.956;4.772;2022-11-11T16:03:20;33.10;;;10.93;;
55489;SDS011;44029;52.956;4.772;2022-11-11T16:05:53;38.67;;;13.25;;
55489;SDS011;44029;52.956;4.772;2022-11-11T16:08:19;42.67;;;16.92;;
55489;SDS011;44029;52.956;4.772;2022-11-11T16:10:46;32.88;;;14.15;;
55489;SDS011;44029;52.956;4.772;2022-11-11T16:13:19;41.30;;;19.88;;
55489;SDS011;44029;52.956;4.772;2022-11-11T16:16:06;27.75;;;12.45;;
55489;SDS011;44029;52.956;4.772;2022-11-11T16:18:46;27.77;;;12.65;;
55489;SDS011;44029;52.956;4.772;2022-11-11T16:21:19;36.47;;;15.07;;
55489;SDS011;44029;52.956;4.772;2022-11-11T16:23:49;35.25;;;15.77;;
55489;SDS011;44029;52.956;4.772;2022-11-11T16:26:16;37.10;;;12.95;;
55489;SDS011;44029;52.956;4.772;2022-11-11T16:28:48;33.85;;;13.73;;
55489;SDS011;44029;52.956;4.772;2022-11-11T16:37:01;44.28;;;23.75;;
55489;SDS011;44029;52.956;4.772;2022-11-11T16:39:34;36.78;;;17.95;;
55489;SDS011;44029;52.956;4.772;2022-11-11T16:42:33;26.75;;;12.07;;
55489;SDS011;44029;52.956;4.772;2022-11-11T16:50:13;36.08;;;16.45;;
55489;SDS011;44029;52.956;4.772;2022-11-11T16:55:37;25.88;;;11.80;;
55489;SDS011;44029;52.956;4.772;2022-11-11T16:58:11;35.33;;;13.52;;
55489;SDS011;44029;52.956;4.772;2022-11-11T17:00:40;29.38;;;13.23;;
55489;SDS011;44029;52.956;4.772;2022-11-11T17:05:46;32.75;;;13.10;;
55489;SDS011;44029;52.956;4.772;2022-11-11T17:08:26;28.67;;;14.60;;
55489;SDS011;44029;52.956;4.772;2022-11-11T17:10:54;27.05;;;12.38;;
55489;SDS011;44029;52.956;4.772;2022-11-11T17:13:19;23.08;;;10.88;;
55489;SDS011;44029;52.956;4.772;2022-11-11T17:15:45;26.23;;;11.30;;
55489;SDS011;44029;52.956;4.772;2022-11-11T17:18:10;35.30;;;11.77;;
55489;SDS011;44029;52.956;4.772;2022-11-11T17:20:38;37.63;;;16.85;;
55489;SDS011;44029;52.956;4.772;2022-11-11T17:23:03;36.13;;;15.77;;
55489;SDS011;44029;52.956;4.772;2022-11-11T17:25:30;38.90;;;15.93;;
55489;SDS011;44029;52.956;4.772;2022-11-11T17:27:56;78.47;;;36.10;;
55489;SDS011;44029;52.956;4.772;2022-11-11T17:30:21;37.33;;;17.02;;
55489;SDS011;44029;52.956;4.772;2022-11-11T17:32:47;41.58;;;17.27;;
55489;SDS011;44029;52.956;4.772;2022-11-11T17:35:13;42.80;;;15.25;;
55489;SDS011;44029;52.956;4.772;2022-11-11T17:37:38;43.95;;;17.40;;
55489;SDS011;44029;52.956;4.772;2022-11-11T17:40:05;55.53;;;29.17;;
55489;SDS011;44029;52.956;4.772;2022-11-11T17:42:31;49.88;;;20.70;;
55489;SDS011;44029;52.956;4.772;2022-11-11T17:44:57;50.75;;;20.63;;
55489;SDS011;44029;52.956;4.772;2022-11-11T17:47:22;59.05;;;23.52;;
55489;SDS011;44029;52.956;4.772;2022-11-11T17:49:48;46.72;;;22.17;;
55489;SDS011;44029;52.956;4.772;2022-11-11T17:52:14;39.65;;;20.13;;
55489;SDS011;44029;52.956;4.772;2022-11-11T17:54:40;35.83;;;16.73;;